M I D A S
Marine Information and Data Acquisition System
Tripno 810 of the Zeeleeuw from 2004-11-22 08:19:51 to 2004-11-22 14:09:12
Back to CruiseResearch ActivitiesStationsMapUnderway DataData graphs

EquipmentUnitsComment
TimeDGPSUTC
LatitudeDGPSDM.mWGS84
LongitudeDGPSDM.mWGS84
HeadingGyrodeg 
SOGDGPSknotsSpeed over ground
COGDGPSdegCourse over ground
DepthEcho soundermeters200 kHz
Missing or incorrect values are displayed as -999
Navigation data collected by the RV Zeeleeuw from 2004-11-22 08:21:17 to 2004-11-22 14:15:54
Time Latitude Longitude Heading SOG COG Depth
2004-11-22 08:22:24 51°13.614 2°56.049 108.1 3.5 290 -999
2004-11-22 08:23:31 51°13.624 2°56.014 117.4 2.4 295 -999
2004-11-22 08:24:34 51°13.653 2°55.927 119.3 4.3 300 -999
2004-11-22 08:25:51 51°13.675 2°55.776 91.2 3.3 274 -999
2004-11-22 08:26:58 51°13.679 2°55.764 31.1 1.7 218 -999
2004-11-22 08:28:04 51°13.722 2°55.727 335.1 5.2 332 13.8
2004-11-22 08:29:04 51°13.83 2°55.635 336.1 8.2 333 13.6
2004-11-22 08:30:02 51°13.956 2°55.542 339.6 8.9 337 13.5
2004-11-22 08:31:32 51°14.164 2°55.38 334.9 10 330 13.3
2004-11-22 08:32:41 51°14.312 2°55.179 313.8 10.1 310 13.5
2004-11-22 08:33:42 51°14.43 2°54.975 312.9 10.4 315 13.7
2004-11-22 08:34:48 51°14.468 2°54.717 264.5 9.4 264 13.7
2004-11-22 08:35:47 51°14.432 2°54.469 249.4 10.3 245 13.4
2004-11-22 08:36:48 51°14.345 2°54.217 244 11.2 241 12.2
2004-11-22 08:38:08 51°14.223 2°53.859 245.1 11.8 243 12
2004-11-22 08:39:26 51°14.106 2°53.51 244.9 11.7 243 12.4
2004-11-22 08:40:48 51°13.984 2°53.136 245.7 11.6 242 12.7
2004-11-22 08:42:08 51°13.871 2°52.78 244.9 11.2 243 13.2
2004-11-22 08:43:13 51°13.779 2°52.493 245.7 11.2 243 13.3
2004-11-22 08:44:18 51°13.686 2°52.204 246.6 11.4 243 13.6
2004-11-22 08:45:39 51°13.57 2°51.837 246.5 11.3 242 13.4
2004-11-22 08:46:58 51°13.454 2°51.482 245.3 11.6 243 14
2004-11-22 08:48:07 51°13.353 2°51.168 245.9 11.6 243 14.1
2004-11-22 08:49:22 51°13.241 2°50.83 243.6 11.5 240 14.2
2004-11-22 08:50:26 51°13.134 2°50.549 243.1 11.6 239 14.2
2004-11-22 08:51:46 51°13.001 2°50.197 243.8 11.7 239 14.4
2004-11-22 08:53:00 51°12.879 2°49.869 243.2 11.7 238 14.5
2004-11-22 08:54:06 51°12.769 2°49.576 242.8 11.6 238 14.5
2004-11-22 08:55:05 51°12.672 2°49.316 243.3 11.7 240 14.7
2004-11-22 08:56:30 51°12.531 2°48.936 243 11.8 239 14.8
2004-11-22 08:58:00 51°12.381 2°48.536 243.2 11.5 241 14.7
2004-11-22 08:59:08 51°12.27 2°48.236 243 11.6 240 14.7
2004-11-22 09:00:24 51°12.146 2°47.902 243.4 11.8 240 14.8
2004-11-22 09:01:25 51°12.045 2°47.629 243.8 11.9 240 14.6
2004-11-22 09:02:46 51°11.912 2°47.264 243.2 11.8 239 14.5
2004-11-22 09:04:20 51°11.755 2°46.84 243.4 11.8 240 14.3
2004-11-22 09:05:18 51°11.659 2°46.576 242.9 12 239 14.1
2004-11-22 09:06:28 51°11.541 2°46.262 243 12 239 13.9
2004-11-22 09:07:34 51°11.432 2°45.961 243.8 11.8 240 13.5
2004-11-22 09:09:00 51°11.295 2°45.564 250.1 11.7 249 13.1
2004-11-22 09:10:04 51°11.229 2°45.242 254.3 12.1 253 13.3
2004-11-22 09:11:30 51°11.138 2°44.811 253.8 11.8 252 13.4
2004-11-22 09:12:52 51°11.051 2°44.403 253.9 12 251 13.6
2004-11-22 09:14:12 51°10.964 2°44.002 253.5 12 251 13.5
2004-11-22 09:15:12 51°10.899 2°43.701 253.8 12 251 13.7
2004-11-22 09:16:12 51°10.836 2°43.4 254 11.9 252 13.7
2004-11-22 09:17:24 51°10.758 2°43.04 252.7 12.1 250 13.7
2004-11-22 09:19:12 51°10.652 2°42.501 261.6 11.8 261 13.9
2004-11-22 09:20:13 51°10.625 2°42.183 261.5 11.9 259 14.2
2004-11-22 09:21:21 51°10.572 2°41.833 258.1 12.1 256 14.4
2004-11-22 09:22:21 51°10.527 2°41.523 258.3 12.1 256 14.6
2004-11-22 09:23:20 51°10.483 2°41.22 258.3 12 256 14.7
2004-11-22 09:24:48 51°10.418 2°40.771 258.3 11.9 257 15.1
2004-11-22 09:25:55 51°10.368 2°40.431 258.5 11.8 256 15.3
2004-11-22 09:27:15 51°10.31 2°40.021 259.1 11.7 258 15.8
2004-11-22 09:28:30 51°10.256 2°39.648 258.2 11.6 257 16.4
2004-11-22 09:29:32 51°10.22 2°39.336 260.8 11.4 261 17.2
2004-11-22 09:30:32 51°10.184 2°39.04 260 11.4 259 18
2004-11-22 09:31:42 51°10.142 2°38.694 260.5 11.5 259 18.3
2004-11-22 09:33:00 51°10.098 2°38.298 260.8 11.8 260 19.4
2004-11-22 09:34:24 51°10.047 2°37.869 260.4 11.6 259 19.5
2004-11-22 09:35:39 51°10.001 2°37.485 260.5 11.8 259 20
2004-11-22 09:37:34 51°9.931 2°36.897 260 11.7 261 20.3
2004-11-22 09:38:40 51°9.921 2°36.557 268.1 11.7 268 20.6
2004-11-22 09:39:46 51°9.915 2°36.218 266.9 11.4 267 20.5
2004-11-22 09:40:52 51°10.004 2°35.912 308.6 12.6 318 20.5
2004-11-22 09:41:53 51°10.213 2°35.809 357.4 13.7 3 13.5
2004-11-22 09:42:54 51°10.436 2°35.963 26.8 15.1 20 13.7
2004-11-22 09:43:56 51°10.657 2°36.156 34.6 14.4 32 13.5
2004-11-22 09:44:57 51°10.873 2°36.362 36.9 14.9 39 14.4
2004-11-22 09:45:55 51°11.074 2°36.564 35.1 14.3 32 15.1
2004-11-22 09:47:09 51°11.329 2°36.822 36.2 14.8 35 15.5
2004-11-22 09:48:18 51°11.569 2°37.056 32.6 14.8 30 15.8
2004-11-22 09:49:18 51°11.777 2°37.255 31.3 14.2 30 15.5
2004-11-22 09:50:24 51°12.003 2°37.48 32.5 14.6 29 15.6
2004-11-22 09:51:24 51°12.213 2°37.687 33.3 15 30 15.3
2004-11-22 09:52:22 51°12.412 2°37.894 35 14.6 37 15.6
2004-11-22 09:53:40 51°12.683 2°38.154 32.7 14.2 31 15.6
2004-11-22 09:54:38 51°12.883 2°38.35 34.1 14.8 30 16.1
2004-11-22 09:55:40 51°13.099 2°38.565 34.9 14.6 33 16.6
2004-11-22 09:56:40 51°13.318 2°38.729 28 14.5 21 16.8
2004-11-22 09:57:42 51°13.546 2°38.877 23.2 14.4 21 16.8
2004-11-22 09:58:58 51°13.838 2°38.906 353.8 13.6 354 16.6
2004-11-22 10:00:26 51°14.152 2°38.769 326.2 13.1 331 15.5
2004-11-22 10:01:23 51°14.229 2°38.501 276.5 11.4 275 19.9
2004-11-22 10:02:49 51°14.139 2°38.088 250.6 11.7 247 20.7
2004-11-22 10:03:50 51°14.063 2°37.794 251.1 11.7 246 21.8
2004-11-22 10:05:17 51°13.957 2°37.382 251.7 11.6 247 22.6
2004-11-22 10:07:00 51°13.828 2°36.889 252.2 11.6 248 22.9
2004-11-22 10:08:36 51°13.714 2°36.426 250.8 11.7 246 21.4
2004-11-22 10:09:57 51°13.617 2°36.038 252.2 11.7 248 21.8
2004-11-22 10:11:38 51°13.491 2°35.563 249.8 11.8 246 19.8
2004-11-22 10:12:36 51°13.418 2°35.286 250.2 11.7 247 19
2004-11-22 10:13:56 51°13.317 2°34.9 249.5 11.9 247 19.1
2004-11-22 10:15:15 51°13.218 2°34.522 250.7 11.8 247 18.5
2004-11-22 10:16:51 51°13.093 2°34.064 246.1 12 243 16.6
2004-11-22 10:18:18 51°12.972 2°33.657 248.2 11.9 246 16.6
2004-11-22 10:19:27 51°12.876 2°33.334 245.8 11.3 243 17.7
2004-11-22 10:20:35 51°12.781 2°33.016 247 12.1 244 -999
2004-11-22 10:21:51 51°12.678 2°32.664 248.2 11.6 246 22.6
2004-11-22 10:23:26 51°12.547 2°32.225 247 11.5 244 24.9
2004-11-22 10:25:04 51°12.41 2°31.767 247.3 11.6 245 25.1
2004-11-22 10:26:22 51°12.301 2°31.404 246.5 11.3 244 24.8
2004-11-22 10:28:34 51°12.114 2°30.789 247.3 11.5 245 24.7
2004-11-22 10:29:40 51°12.023 2°30.48 247.1 11.6 246 24.4
2004-11-22 10:31:04 51°11.907 2°30.079 247.4 12.1 246 25.1
2004-11-22 10:32:04 51°11.823 2°29.798 246.8 11.8 244 25.2
2004-11-22 10:33:04 51°11.741 2°29.52 247.5 11.6 245 25.4
2004-11-22 10:34:27 51°11.625 2°29.128 247.5 11.7 245 25.4
2004-11-22 10:36:04 51°11.487 2°28.668 247.3 12 245 25.5
2004-11-22 10:37:10 51°11.403 2°28.353 253.5 11.7 252 24.5
2004-11-22 10:38:26 51°11.324 2°27.977 253.7 11.9 252 24.2
2004-11-22 10:39:53 51°11.232 2°27.538 253 12.1 252 24.2
2004-11-22 10:40:50 51°11.173 2°27.247 253.5 12.2 251 25.7
2004-11-22 10:41:57 51°11.102 2°26.909 253.6 12.1 252 24.8
2004-11-22 10:42:56 51°11.041 2°26.613 254 12 253 24
2004-11-22 10:43:58 51°10.981 2°26.296 257.3 12.1 257 22
2004-11-22 10:45:18 51°10.934 2°25.88 259.4 12.1 260 19.2
2004-11-22 10:46:26 51°10.892 2°25.526 261.2 12 262 17
2004-11-22 10:47:42 51°10.923 2°25.127 288.8 12.1 296 17.9
2004-11-22 10:48:50 51°11.139 2°24.958 346.6 14.1 349 23.3
2004-11-22 10:49:50 51°11.378 2°25.001 15.6 14.9 22 26.5
2004-11-22 10:51:06 51°11.676 2°25.171 22.5 14.7 18 27.4
2004-11-22 10:52:07 51°11.886 2°25.388 44.5 15.3 40 26.8
2004-11-22 10:53:07 51°12.079 2°25.649 41.6 15.5 39 27
2004-11-22 10:54:24 51°12.32 2°25.992 43.6 14.7 45 28.2
2004-11-22 10:56:13 51°12.659 2°26.478 45.9 15 46 27
2004-11-22 10:57:32 51°12.903 2°26.835 42 14.9 44 26.8
2004-11-22 10:58:37 51°13.112 2°27.117 43.6 15.6 40 26.8
2004-11-22 10:59:38 51°13.298 2°27.392 48.9 15.1 37 26.7
2004-11-22 11:00:37 51°13.478 2°27.659 48.6 14.6 49 25.6
2004-11-22 11:01:46 51°13.69 2°27.955 45.6 14.3 44 27.2
2004-11-22 11:02:54 51°13.904 2°28.266 41.6 15.3 42 27.2
2004-11-22 11:04:00 51°14.107 2°28.565 46.7 15.1 48 27.2
2004-11-22 11:05:00 51°14.289 2°28.837 49.2 14.8 41 28.4
2004-11-22 11:06:13 51°14.517 2°29.165 45.7 14.9 43 29
2004-11-22 11:07:27 51°14.741 2°29.505 45.7 14.9 37 29.1
2004-11-22 11:08:28 51°14.93 2°29.781 44.5 15.5 41 29.1
2004-11-22 11:09:31 51°15.121 2°30.071 47.1 15.3 45 29.2
2004-11-22 11:10:32 51°15.308 2°30.344 45 15 42 29.2
2004-11-22 11:11:49 51°15.543 2°30.689 47.2 15.1 42 29.4
2004-11-22 11:12:49 51°15.729 2°30.958 46.8 15.7 40 29.3
2004-11-22 11:14:00 51°15.95 2°31.281 44.7 15.5 45 28.8
2004-11-22 11:15:00 51°16.137 2°31.559 49.8 15.3 41 28.8
2004-11-22 11:16:00 51°16.321 2°31.83 48.7 14.6 48 29.2
2004-11-22 11:17:12 51°16.547 2°32.157 45 15.5 43 27.7
2004-11-22 11:18:21 51°16.759 2°32.473 48.6 15.3 47 26.4
2004-11-22 11:19:23 51°16.95 2°32.756 49.1 15 45 25.6
2004-11-22 11:20:22 51°17.132 2°33.017 44.4 15.1 41 26.4
2004-11-22 11:21:22 51°17.314 2°33.304 53.5 15.3 47 27
2004-11-22 11:22:32 51°17.535 2°33.622 45 15.2 43 27.4
2004-11-22 11:23:38 51°17.74 2°33.921 48.1 15.2 46 25.9
2004-11-22 11:24:44 51°17.942 2°34.219 46 15.3 43 29.9
2004-11-22 11:25:42 51°18.118 2°34.477 49.8 15.2 43 29.5
2004-11-22 11:26:49 51°18.317 2°34.773 43.8 14.5 38 29.4
2004-11-22 11:28:07 51°18.542 2°35.135 54.4 14.7 49 25.3
2004-11-22 11:29:11 51°18.711 2°35.458 56.6 14.5 54 25.2
2004-11-22 11:30:28 51°18.913 2°35.855 56.6 15 52 24
2004-11-22 11:31:57 51°19.155 2°36.308 55.8 15.2 52 23.4
2004-11-22 11:33:18 51°19.369 2°36.722 51.3 14.3 51 21.2
2004-11-22 11:34:34 51°19.575 2°37.098 55.1 15.1 55 21.5
2004-11-22 11:36:00 51°19.798 2°37.53 55.2 14.8 49 23.7
2004-11-22 11:37:08 51°19.974 2°37.876 52.5 14.7 50 24.7
2004-11-22 11:38:08 51°20.124 2°38.182 57.5 14.4 52 25.6
2004-11-22 11:39:08 51°20.288 2°38.466 47.9 15.8 50 25.3
2004-11-22 11:40:22 51°20.493 2°38.828 56.5 14.7 51 26.3
2004-11-22 11:41:33 51°20.691 2°39.15 46.1 14.8 39 26.6
2004-11-22 11:42:37 51°20.867 2°39.462 53.2 15.6 52 26.8
2004-11-22 11:43:42 51°21.05 2°39.751 49.7 15 48 27.6
2004-11-22 11:44:46 51°21.263 2°39.939 10.1 13.8 11 27.8
2004-11-22 11:45:51 51°21.521 2°39.945 1.5 14.5   28.1
2004-11-22 11:47:00 51°21.795 2°39.958 4.3 14.3 358 28.9
2004-11-22 11:48:00 51°22.03 2°39.981 9.1 14.4 7 29.8
2004-11-22 11:49:00 51°22.268 2°40.011 8.1 14.6 5 30.8
2004-11-22 11:49:58 51°22.5 2°40.025 4.3 14.1 9 30.2
2004-11-22 11:51:05 51°22.764 2°40.045 5.4 13.9 2 31.7
2004-11-22 11:52:05 51°23.003 2°40.057 2 14.1 4 31.8
2004-11-22 11:53:28 51°23.335 2°40.077 5.2 14.5   31.5
2004-11-22 11:54:50 51°23.66 2°40.14 9.2 14.6 7 30.8
2004-11-22 11:55:56 51°23.925 2°40.196 11.8 14.7 10 30.4
2004-11-22 11:56:54 51°24.158 2°40.256 9.6 14.5 11 29.2
2004-11-22 11:58:07 51°24.449 2°40.319 9.6 14.5 8 27.5
2004-11-22 11:59:08 51°24.696 2°40.372 11.9 15 6 26.7
2004-11-22 12:00:14 51°24.96 2°40.44 13.8 14.8 11 27
2004-11-22 12:01:22 51°25.233 2°40.523 14.6 15 13 28.3
2004-11-22 12:02:28 51°25.497 2°40.598 11.3 14.6 7 26.8
2004-11-22 12:03:28 51°25.736 2°40.656 14.4 14.5 14 29.9
2004-11-22 12:04:27 51°25.948 2°40.826 36.6 14.1 27 30.2
2004-11-22 12:05:32 51°26.173 2°41.048 34.3 15.1 28 31.1
2004-11-22 12:06:37 51°26.386 2°41.296 47.4 13.8 54 30.4
2004-11-22 12:07:42 51°26.567 2°41.613 53.8 14.8 52 30.7
2004-11-22 12:08:48 51°26.692 2°41.991 71.5 14.9 69 31.7
2004-11-22 12:09:52 51°26.787 2°42.371 78.3 14.7 69 32.7
2004-11-22 12:10:56 51°26.857 2°42.762 80.9 15.3 70 29.4
2004-11-22 12:11:57 51°26.931 2°43.131 78.7 14.6 72 28.8
2004-11-22 12:13:11 51°27.022 2°43.575 80.4 13.6 80 29.9
2004-11-22 12:14:10 51°27.071 2°43.934 93.6 14.1 85 25.7
2004-11-22 12:15:08 51°26.994 2°44.264 129.4 13.5 128 27
2004-11-22 12:16:11 51°26.849 2°44.565 132.3 14.1 123 28.4
2004-11-22 12:17:17 51°26.699 2°44.883 135.9 13.6 126 29.9
2004-11-22 12:18:18 51°26.529 2°45.118 150.2 13.4 140 29.4
2004-11-22 12:19:31 51°26.315 2°45.378 148.6 13.2 150 29.1
2004-11-22 12:20:43 51°26.105 2°45.636 149.5 13.1 139 27.2
2004-11-22 12:21:44 51°25.952 2°45.897 132.8 13.2 130 25.7
2004-11-22 12:22:48 51°25.925 2°46.27 83.2 13.2 77 25.7
2004-11-22 12:23:50 51°25.989 2°46.652 83.6 15 73 25.5
2004-11-22 12:25:17 51°26.082 2°47.192 78.7 14 74 22.9
2004-11-22 12:26:24 51°26.157 2°47.593 78.3 13.8 69 22.9
2004-11-22 12:27:25 51°26.24 2°47.95 77.7 14.3 69 22.3
2004-11-22 12:28:37 51°26.392 2°48.343 62 14.1 53 21.9
2004-11-22 12:29:42 51°26.526 2°48.701 67 13.9 63 22.5
2004-11-22 12:30:59 51°26.736 2°49.043 41.9 14.1 33 20.3
2004-11-22 12:32:06 51°26.991 2°49.103 3.4 13.7 3 23.8
2004-11-22 12:33:10 51°27.241 2°49.116 6.5 14.1 5 25.8
2004-11-22 12:34:10 51°27.48 2°49.135 6.6 14.3 4 27.2
2004-11-22 12:35:17 51°27.744 2°49.158 5.4 14.3 7 26.5
2004-11-22 12:36:20 51°27.991 2°49.185 4.5 14.2 6 29.3
2004-11-22 12:37:28 51°28.255 2°49.219 7.3 14.2 10 31.6
2004-11-22 12:38:32 51°28.506 2°49.253 9.5 14.6 4 31
2004-11-22 12:39:40 51°28.757 2°49.385 34.6 14.6 24 30
2004-11-22 12:40:46 51°28.905 2°49.717 74 13.9 67 30.5
2004-11-22 12:41:50 51°28.998 2°50.096 72.3 14.1 67 28.4
2004-11-22 12:42:50 51°29.086 2°50.453 73.5 14.6 69 29
2004-11-22 12:44:04 51°29.183 2°50.896 79.1 14.2 70 29.5
2004-11-22 12:45:03 51°29.263 2°51.253 77.1 14.6 68 28.3
2004-11-22 12:46:04 51°29.346 2°51.62 75.4 15 71 30.5
2004-11-22 12:47:09 51°29.386 2°52.021 99 13.9 97 31.4
2004-11-22 12:48:11 51°29.259 2°52.308 153.1 13.4 148 30.7
2004-11-22 12:49:19 51°29.025 2°52.415 173.7 13 170 31.3
2004-11-22 12:50:19 51°28.82 2°52.519 164.8 13.1 156 30.1
2004-11-22 12:51:19 51°28.615 2°52.63 169.1 13.1 165 27.7
2004-11-22 12:52:24 51°28.391 2°52.745 168.4 13.1 167 25.1
2004-11-22 12:53:28 51°28.172 2°52.86 167.7 12.9 161 23.1
2004-11-22 12:54:30 51°27.959 2°52.969 169.1 13 162 23.2
2004-11-22 12:55:30 51°27.754 2°53.071 168.6 12.8 163 21.5
2004-11-22 12:56:37 51°27.524 2°53.184 170.4 12.7 157 20.7
2004-11-22 12:57:36 51°27.324 2°53.289 167.5 12.9 165 25.9
2004-11-22 12:58:36 51°27.117 2°53.395 168.8 12.8 161 27.7
2004-11-22 12:59:36 51°26.911 2°53.5 170.5 13 167 28.7
2004-11-22 13:00:42 51°26.685 2°53.616 169.1 12.8 160 31.8
2004-11-22 13:01:41 51°26.48 2°53.715 168.3 13.2 164 33.2
2004-11-22 13:02:38 51°26.284 2°53.818 167.5 13 161 33.1
2004-11-22 13:03:48 51°26.039 2°53.927 172.3 13 167 27.8
2004-11-22 13:04:54 51°25.806 2°54.005 173.5 13 169 23.7
2004-11-22 13:05:52 51°25.599 2°54.07 173.1 13.3 171 21.7
2004-11-22 13:06:56 51°25.372 2°54.141 173.7 12.8 171 21.8
2004-11-22 13:07:54 51°25.167 2°54.21 172.8 13 167 22.3
2004-11-22 13:09:01 51°24.932 2°54.286 173.1 12.9 169 19.8
2004-11-22 13:10:00 51°24.726 2°54.354 174.1 12.8 169 17.9
2004-11-22 13:11:13 51°24.469 2°54.439 173.7 13 167 21.5
2004-11-22 13:12:14 51°24.252 2°54.51 174.4 13 167 22.9
2004-11-22 13:13:14 51°24.038 2°54.578 172.6 13.2 167 21.9
2004-11-22 13:14:14 51°23.825 2°54.648 173.8 12.9 168 21.3
2004-11-22 13:15:13 51°23.617 2°54.718 174.1 13 170 19.9
2004-11-22 13:16:30 51°23.344 2°54.803 174 12.9 172 20.7
2004-11-22 13:17:58 51°23.033 2°54.897 173.5 13 171 19.8
2004-11-22 13:18:58 51°22.818 2°54.956 172.8 13.2 168 20.4
2004-11-22 13:19:58 51°22.6 2°55.016 174.3 13.3 173 19.8
2004-11-22 13:21:20 51°22.3 2°55.099 171.7 13.4 170 19.3
2004-11-22 13:22:29 51°22.048 2°55.168 173.9 13.2 166 18.6
2004-11-22 13:23:49 51°21.76 2°55.253 172.7 13.1 170 18.3
2004-11-22 13:24:48 51°21.548 2°55.315 173.4 13.1 168 17.7
2004-11-22 13:25:56 51°21.301 2°55.38 170.5 13.1 168 17.4
2004-11-22 13:26:56 51°21.089 2°55.481 167.4 13.5 163 16.7
2004-11-22 13:27:56 51°20.878 2°55.592 163.2 13.4 165 15.2
2004-11-22 13:28:56 51°20.668 2°55.698 164.4 13.2 166 14.4
2004-11-22 13:29:56 51°20.457 2°55.796 165.7 13.3 165 13.3
2004-11-22 13:30:54 51°20.254 2°55.886 169.1 13.4 162 13.2
2004-11-22 13:31:56 51°20.032 2°55.952 171.3 13.1 173 12.5
2004-11-22 13:32:54 51°19.823 2°56.01 172.3 13.1 171 12.2
2004-11-22 13:34:14 51°19.532 2°56.074 171.2 13 169 11.5
2004-11-22 13:35:14 51°19.344 2°55.956 229.7 12.6 230 11.3
2004-11-22 13:36:12 51°19.232 2°55.689 240.3 12.9 240 11.6
2004-11-22 13:37:14 51°19.127 2°55.38 242.3 12.8 241 11.5
2004-11-22 13:38:14 51°19.026 2°55.073 243.5 13.1 243 11.6
2004-11-22 13:39:24 51°18.91 2°54.708 244.1 13.2 244 11.3
2004-11-22 13:40:26 51°18.809 2°54.384 244.6 13.2 244 11.5
2004-11-22 13:41:26 51°18.712 2°54.069 244.5 13.3 244 11.4
2004-11-22 13:42:32 51°18.606 2°53.721 244.5 13.1 244 11.5
2004-11-22 13:43:32 51°18.51 2°53.407 244.6 12.8 242 11.5
2004-11-22 13:44:42 51°18.4 2°53.045 245.3 13.1 245 11.1
2004-11-22 13:45:58 51°18.279 2°52.653 244.5 13 244 11.2
2004-11-22 13:46:58 51°18.179 2°52.341 238.2 13.2 235 10.8
2004-11-22 13:47:58 51°17.988 2°52.203 187.9 12.9 183 10.5
2004-11-22 13:48:58 51°17.771 2°52.235 173.5 13.1 175 10.2
2004-11-22 13:49:58 51°17.55 2°52.276 174.7 13.3 175 10.5
2004-11-22 13:51:06 51°17.308 2°52.369 159.2 13.4 150 10.4
2004-11-22 13:52:03 51°17.111 2°52.486 161.8 13.5 158 9.8
2004-11-22 13:53:16 51°16.86 2°52.642 158.2 13.6 155 9.5
2004-11-22 13:54:16 51°16.656 2°52.791 155.4 13.8 156 11.2
2004-11-22 13:55:15 51°16.457 2°52.947 156.1 13.3 155 12.3
2004-11-22 13:56:13 51°16.26 2°53.089 157.5 13.5 156 12.4
2004-11-22 13:57:16 51°16.044 2°53.235 155.6 13.5 151 12
2004-11-22 13:58:40 51°15.754 2°53.43 159.3 13.8 159 11.4
2004-11-22 13:59:45 51°15.528 2°53.579 157.1 13.8 156 10.7
2004-11-22 14:00:45 51°15.323 2°53.723 156.1 13.4 153 9.9
2004-11-22 14:02:08 51°15.052 2°53.951 143.7 13.3 138 9.2
2004-11-22 14:03:17 51°14.858 2°54.173 157.7 11 155 9.5
2004-11-22 14:04:22 51°14.721 2°54.43 128.4 11.9 125 10.1
2004-11-22 14:05:47 51°14.532 2°54.779 131.3 12 129 10.1
2004-11-22 14:06:45 51°14.405 2°55.016 131 12.2 128 10.9
2004-11-22 14:07:54 51°14.255 2°55.281 139.3 11.2 134 10.4
2004-11-22 14:09:09 51°14.088 2°55.444 158.7 8.1 155 9.9
2004-11-22 14:10:22 51°13.94 2°55.55 159.6 7.9 156 10.1
2004-11-22 14:11:21 51°13.815 2°55.643 158.5 8.7 155 10.8
2004-11-22 14:12:39 51°13.699 2°55.812 131.3 6 127 11.9
2004-11-22 14:14:24 51°13.631 2°56.021 117.6 3.9 113 8
2004-11-22 14:15:43 51°13.617 2°56.06 122.3 0.2 84 8